createdAt,value
2023-03-21T00:00:56.237Z,5.93
2023-03-21T00:03:25.456Z,6.17
2023-03-21T00:05:54.856Z,3.90
2023-03-21T00:08:25.731Z,5.37
2023-03-21T00:10:58.447Z,5.77
2023-03-21T00:13:32.650Z,9.47
2023-03-21T00:16:13.612Z,7.17
2023-03-21T00:18:52.502Z,7.67
2023-03-21T00:24:16.755Z,6.97
2023-03-21T00:26:45.092Z,7.77
2023-03-21T00:29:14.661Z,5.90
2023-03-21T00:31:42.932Z,5.43
2023-03-21T00:36:44.707Z,6.87
2023-03-21T00:39:14.217Z,7.97
2023-03-21T00:41:43.514Z,6.27
2023-03-21T00:44:15.780Z,6.20
2023-03-21T00:46:57.278Z,6.20
2023-03-21T00:49:33.959Z,5.30
2023-03-21T00:52:15.160Z,5.70
2023-03-21T00:54:45.319Z,4.53
2023-03-21T00:57:13.552Z,5.70
2023-03-21T00:59:43.190Z,5.53
2023-03-21T01:02:14.783Z,6.20
2023-03-21T01:04:44.533Z,4.20
2023-03-21T01:07:12.769Z,5.63
2023-03-21T01:09:41.035Z,4.77
2023-03-21T01:12:10.595Z,4.83
2023-03-21T01:14:39.253Z,6.10
2023-03-21T01:17:10.015Z,6.63
2023-03-21T01:19:51.180Z,6.30
2023-03-21T01:22:21.114Z,7.73
2023-03-21T01:24:55.369Z,4.77
2023-03-21T01:27:26.763Z,7.47
2023-03-21T01:29:55.685Z,5.87
2023-03-21T01:32:25.308Z,5.23
2023-03-21T01:34:53.514Z,5.73
2023-03-21T01:37:26.331Z,6.03
2023-03-21T01:39:54.546Z,5.97
2023-03-21T01:42:23.474Z,6.27
2023-03-21T01:44:58.956Z,8.77
2023-03-21T01:47:36.926Z,7.27
2023-03-21T01:50:12.552Z,5.20
2023-03-21T01:52:51.361Z,7.20
2023-03-21T01:55:28.723Z,5.33
2023-03-21T01:58:23.165Z,6.07
2023-03-21T02:01:04.861Z,5.57
2023-03-21T02:03:51.648Z,7.27
2023-03-21T02:06:45.681Z,5.17
2023-03-21T02:09:33.483Z,5.63
2023-03-21T02:12:03.045Z,5.03
2023-03-21T02:14:36.051Z,4.93
2023-03-21T02:17:22.886Z,4.23
2023-03-21T02:20:44.001Z,7.10
2023-03-21T02:24:10.343Z,4.93
2023-03-21T02:27:08.897Z,5.80
2023-03-21T02:30:39.984Z,4.60
2023-03-21T02:33:48.276Z,6.00
2023-03-21T02:36:28.485Z,5.10
2023-03-21T02:39:08.941Z,5.87
2023-03-21T02:41:48.250Z,5.17
2023-03-21T02:44:24.142Z,3.70
2023-03-21T02:47:05.378Z,4.97
2023-03-21T02:49:43.532Z,5.47
2023-03-21T02:52:35.553Z,7.70
2023-03-21T02:55:14.246Z,5.93
2023-03-21T02:57:52.805Z,6.00
2023-03-21T03:00:25.596Z,6.27
2023-03-21T03:03:08.206Z,4.93
2023-03-21T03:05:43.518Z,4.47
2023-03-21T03:08:38.504Z,5.47
2023-03-21T03:11:24.335Z,4.90
2023-03-21T03:14:56.506Z,4.80
2023-03-21T03:17:44.309Z,4.73
2023-03-21T03:20:31.243Z,8.17
2023-03-21T03:23:14.941Z,5.63
2023-03-21T03:25:50.273Z,3.90
2023-03-21T03:28:26.278Z,6.47
2023-03-21T03:31:08.766Z,9.87
2023-03-21T03:33:56.904Z,4.07
2023-03-21T03:36:33.169Z,5.17
2023-03-21T03:39:18.075Z,5.47
2023-03-21T03:42:18.270Z,3.90
2023-03-21T03:44:58.665Z,6.57
2023-03-21T03:47:39.935Z,7.37
2023-03-21T03:50:21.506Z,4.10
2023-03-21T03:53:01.246Z,5.57
2023-03-21T03:55:34.614Z,8.83
2023-03-21T03:58:21.675Z,5.50
2023-03-21T04:00:55.385Z,6.87
2023-03-21T04:03:24.030Z,6.80
2023-03-21T04:05:54.045Z,7.33
2023-03-21T04:08:23.199Z,4.33
2023-03-21T04:10:55.341Z,5.23
2023-03-21T04:13:25.799Z,5.23
2023-03-21T04:16:13.045Z,4.33
2023-03-21T04:18:43.155Z,4.60
2023-03-21T04:21:13.471Z,5.07
2023-03-21T04:23:42.954Z,4.43
2023-03-21T04:26:11.587Z,6.80
2023-03-21T04:28:52.524Z,5.70
2023-03-21T04:31:53.822Z,3.80
2023-03-21T04:34:23.889Z,3.50
2023-03-21T04:36:54.503Z,5.23
2023-03-21T04:39:24.755Z,3.63
2023-03-21T04:41:53.056Z,5.30
2023-03-21T04:44:21.973Z,5.30
2023-03-21T04:46:50.347Z,7.23
2023-03-21T04:49:19.956Z,4.37
2023-03-21T04:51:48.196Z,6.83
2023-03-21T04:54:21.029Z,4.73
2023-03-21T04:56:49.267Z,6.73
2023-03-21T04:59:17.766Z,4.30
2023-03-21T05:01:46.710Z,4.57
2023-03-21T05:04:16.209Z,4.73
2023-03-21T05:06:47.260Z,4.80
2023-03-21T05:09:17.697Z,4.93
2023-03-21T05:11:45.952Z,4.63
2023-03-21T05:14:19.285Z,7.00
2023-03-21T05:16:53.489Z,4.60
2023-03-21T05:19:25.867Z,5.43
2023-03-21T05:21:55.589Z,5.83
2023-03-21T05:24:28.664Z,5.63
2023-03-21T05:27:02.722Z,5.50
2023-03-21T05:29:35.520Z,4.13
2023-03-21T05:32:07.061Z,5.43
2023-03-21T05:34:35.290Z,6.43
2023-03-21T05:37:05.629Z,5.13
2023-03-21T05:39:46.686Z,4.30
2023-03-21T05:42:22.447Z,4.93
2023-03-21T05:44:51.108Z,5.73
2023-03-21T05:47:23.973Z,7.77
2023-03-21T05:49:53.894Z,6.67
2023-03-21T05:52:24.724Z,6.30
2023-03-21T05:54:53.286Z,5.93
2023-03-21T05:57:24.728Z,7.43
2023-03-21T06:00:07.208Z,10.23
2023-03-21T06:02:43.626Z,7.60
2023-03-21T06:05:31.226Z,9.00
2023-03-21T06:08:01.474Z,7.77
2023-03-21T06:10:29.810Z,8.93
2023-03-21T06:12:59.374Z,8.10
2023-03-21T06:15:30.639Z,7.90
2023-03-21T06:18:06.478Z,6.73
2023-03-21T06:20:35.926Z,7.30
2023-03-21T06:23:11.367Z,6.80
2023-03-21T06:25:40.098Z,7.33
2023-03-21T06:28:08.546Z,5.77
2023-03-21T06:30:41.130Z,6.37
2023-03-21T06:33:15.794Z,6.93
2023-03-21T06:35:45.775Z,7.20
2023-03-21T06:38:15.759Z,7.70
2023-03-21T06:40:43.978Z,8.70
2023-03-21T06:43:12.169Z,6.30
2023-03-21T06:45:41.152Z,8.90
2023-03-21T06:48:12.512Z,8.40
2023-03-21T06:50:52.117Z,10.83
2023-03-21T06:53:27.298Z,8.03
2023-03-21T06:56:16.274Z,7.00
2023-03-21T06:58:46.538Z,10.13
2023-03-21T07:01:27.674Z,9.50
2023-03-21T07:04:15.901Z,12.37
2023-03-21T07:06:47.979Z,7.97
2023-03-21T07:09:18.552Z,10.10
2023-03-21T07:11:47.672Z,8.43
2023-03-21T07:14:15.956Z,9.50
2023-03-21T07:16:44.267Z,8.13
2023-03-21T07:19:12.859Z,11.63
2023-03-21T07:21:41.085Z,12.00
2023-03-21T07:24:10.041Z,12.43
2023-03-21T07:26:40.391Z,11.23
2023-03-21T07:29:08.655Z,10.83
2023-03-21T07:31:37.468Z,13.77
2023-03-21T07:34:05.941Z,14.73
2023-03-21T07:36:34.466Z,13.73
2023-03-21T07:39:02.995Z,10.37
2023-03-21T07:41:32.331Z,12.57
2023-03-21T07:44:13.824Z,13.40
2023-03-21T07:46:42.192Z,14.20
2023-03-21T07:49:10.382Z,13.90
2023-03-21T07:51:39.228Z,11.10
2023-03-21T07:54:07.715Z,14.13
2023-03-21T07:56:36.438Z,11.67
2023-03-21T07:59:05.418Z,9.63
2023-03-21T08:01:35.085Z,11.47
2023-03-21T08:04:03.231Z,12.50
2023-03-21T08:06:32.603Z,9.57
2023-03-21T08:09:01.506Z,9.67
2023-03-21T08:11:31.488Z,9.67
2023-03-21T08:13:59.934Z,8.80
2023-03-21T08:16:28.350Z,8.23
2023-03-21T08:18:57.923Z,7.33
2023-03-21T08:21:26.264Z,7.70
2023-03-21T08:23:54.904Z,7.50
2023-03-21T08:26:25.171Z,8.93
2023-03-21T08:28:53.552Z,7.23
2023-03-21T08:31:22.543Z,10.17
2023-03-21T08:33:54.823Z,6.83
2023-03-21T08:36:24.722Z,6.47
2023-03-21T08:38:56.863Z,6.10
2023-03-21T08:41:26.023Z,7.03
2023-03-21T08:43:54.218Z,7.33
2023-03-21T08:46:23.020Z,6.20
2023-03-21T08:48:51.256Z,8.23
2023-03-21T08:51:19.611Z,4.50
2023-03-21T08:53:50.986Z,4.97
2023-03-21T08:56:19.509Z,4.23
2023-03-21T08:58:47.726Z,5.00
2023-03-21T09:01:20.366Z,4.80
2023-03-21T09:03:49.785Z,5.17
2023-03-21T09:06:21.766Z,4.23
2023-03-21T09:08:52.733Z,4.27
2023-03-21T09:11:20.919Z,3.87
2023-03-21T09:13:49.227Z,2.87
2023-03-21T09:16:17.544Z,7.43
2023-03-21T09:18:47.314Z,4.70
2023-03-21T09:21:16.732Z,5.93
2023-03-21T09:23:46.189Z,3.90
2023-03-21T09:26:16.275Z,2.50
2023-03-21T09:28:44.539Z,3.40
2023-03-21T09:31:14.658Z,3.33
2023-03-21T09:33:43.769Z,3.37
2023-03-21T09:36:14.247Z,2.63
2023-03-21T09:38:45.591Z,3.33
2023-03-21T09:41:32.344Z,4.77
2023-03-21T09:44:16.320Z,2.80
2023-03-21T09:46:52.355Z,2.67
2023-03-21T09:49:29.575Z,4.33
2023-03-21T09:51:59.864Z,3.10
2023-03-21T09:54:33.429Z,3.47
2023-03-21T09:57:14.975Z,2.53
2023-03-21T09:59:43.478Z,6.03
2023-03-21T10:02:35.883Z,3.50
2023-03-21T10:05:13.553Z,2.63
2023-03-21T10:07:47.669Z,2.30
2023-03-21T10:10:23.687Z,3.10
2023-03-21T10:12:55.325Z,2.53
2023-03-21T10:15:27.717Z,4.23
2023-03-21T10:18:08.116Z,3.50
2023-03-21T10:20:38.928Z,2.77
2023-03-21T10:23:12.682Z,4.07
2023-03-21T10:25:44.452Z,2.87
2023-03-21T10:28:18.648Z,3.20
2023-03-21T10:30:51.512Z,2.10
2023-03-21T10:33:23.871Z,2.00
2023-03-21T10:35:55.752Z,2.70
2023-03-21T10:38:26.906Z,3.60
2023-03-21T10:40:55.963Z,2.73
2023-03-21T10:43:38.764Z,2.10
2023-03-21T10:46:10.942Z,4.10
2023-03-21T10:48:46.142Z,2.33
2023-03-21T10:51:20.793Z,2.50
2023-03-21T10:53:54.077Z,3.25
2023-03-21T10:56:27.891Z,2.37
2023-03-21T10:58:59.722Z,1.93
2023-03-21T11:01:36.466Z,1.70
2023-03-21T11:04:31.716Z,3.35
2023-03-21T11:07:07.025Z,4.55
2023-03-21T11:09:50.022Z,3.00
2023-03-21T11:12:30.568Z,3.22
2023-03-21T11:15:27.526Z,1.73
2023-03-21T11:17:55.990Z,2.03
2023-03-21T11:20:24.948Z,1.10
2023-03-21T11:22:56.888Z,3.92
2023-03-21T11:25:34.988Z,1.45
2023-03-21T11:28:08.472Z,3.75
2023-03-21T11:30:38.630Z,1.83
2023-03-21T11:33:08.162Z,2.08
2023-03-21T11:35:39.546Z,2.15
2023-03-21T11:38:25.900Z,3.72
2023-03-21T11:40:59.292Z,1.73
2023-03-21T11:43:31.799Z,1.38
2023-03-21T11:46:08.647Z,3.92
2023-03-21T11:48:42.254Z,2.45
2023-03-21T11:51:23.804Z,1.88
2023-03-21T11:54:01.376Z,1.90
2023-03-21T11:56:33.714Z,3.30
2023-03-21T11:59:22.189Z,2.05
2023-03-21T12:02:33.656Z,2.08
2023-03-21T12:05:06.384Z,1.58
2023-03-21T12:07:51.968Z,3.08
2023-03-21T12:10:33.638Z,1.50
2023-03-21T12:13:17.894Z,1.83
2023-03-21T12:15:58.851Z,1.90
2023-03-21T12:19:14.420Z,2.47
2023-03-21T12:21:55.040Z,1.45
2023-03-21T12:24:26.464Z,1.90
2023-03-21T12:27:02.032Z,1.80
2023-03-21T12:30:02.202Z,1.52
2023-03-21T12:32:46.429Z,2.28
2023-03-21T12:35:31.806Z,1.58
2023-03-21T12:38:16.718Z,1.98
2023-03-21T12:41:10.334Z,2.42
2023-03-21T12:43:55.339Z,2.80
2023-03-21T12:46:29.378Z,2.17
2023-03-21T12:49:02.618Z,1.70
2023-03-21T12:51:35.979Z,1.80
2023-03-21T12:54:15.029Z,1.85
2023-03-21T12:56:51.443Z,2.05
2023-03-21T12:59:28.383Z,1.50
2023-03-21T13:02:02.366Z,1.63
2023-03-21T13:04:43.629Z,2.58
2023-03-21T13:07:20.096Z,2.03
2023-03-21T13:09:48.551Z,1.55
2023-03-21T13:12:36.429Z,3.20
2023-03-21T13:15:24.371Z,1.50
2023-03-21T13:18:02.695Z,2.28
2023-03-21T13:20:37.261Z,1.80
2023-03-21T13:23:37.816Z,3.17
2023-03-21T13:26:11.289Z,4.57
2023-03-21T13:28:42.209Z,2.25
2023-03-21T13:31:21.897Z,2.88
2023-03-21T13:33:52.400Z,1.90
2023-03-21T13:36:26.830Z,1.67
2023-03-21T13:39:05.559Z,3.00
2023-03-21T13:41:37.134Z,1.67
2023-03-21T13:44:20.865Z,2.75
2023-03-21T13:46:56.263Z,1.80
2023-03-21T13:49:36.731Z,2.00
2023-03-21T13:52:27.555Z,1.50
2023-03-21T13:54:58.898Z,3.08
2023-03-21T13:57:40.735Z,2.08
2023-03-21T14:00:20.934Z,2.40
2023-03-21T14:02:58.339Z,2.72
2023-03-21T14:05:29.374Z,2.65
2023-03-21T14:08:13.600Z,1.50
2023-03-21T14:10:49.113Z,2.25
2023-03-21T14:13:21.925Z,1.52
2023-03-21T14:15:56.829Z,2.33
2023-03-21T14:18:48.092Z,2.00
2023-03-21T14:21:24.356Z,2.03
2023-03-21T14:24:01.492Z,1.60
2023-03-21T14:26:35.492Z,2.08
2023-03-21T14:29:09.695Z,1.67
2023-03-21T14:31:46.761Z,2.58
2023-03-21T14:34:17.065Z,1.95
2023-03-21T14:36:55.442Z,2.33
2023-03-21T14:39:29.663Z,2.65
2023-03-21T14:42:06.139Z,3.67
2023-03-21T14:44:52.812Z,3.67
2023-03-21T14:47:25.224Z,4.07
2023-03-21T14:49:53.987Z,4.47
2023-03-21T14:52:26.707Z,3.70
2023-03-21T14:54:56.492Z,3.50
2023-03-21T14:57:29.820Z,5.20
2023-03-21T15:00:02.200Z,4.70
2023-03-21T15:02:36.565Z,4.72
2023-03-21T15:05:11.952Z,4.07
2023-03-21T15:07:40.962Z,4.00
2023-03-21T15:10:17.952Z,6.57
2023-03-21T15:12:57.239Z,3.88
2023-03-21T15:15:27.969Z,4.32
2023-03-21T15:18:00.045Z,5.30
2023-03-21T15:20:33.380Z,5.90
2023-03-21T15:23:05.603Z,5.30
2023-03-21T15:25:37.612Z,6.05
2023-03-21T15:28:07.657Z,4.45
2023-03-21T15:30:36.122Z,7.03
2023-03-21T15:33:10.390Z,4.07
2023-03-21T15:35:41.623Z,3.10
2023-03-21T15:38:24.838Z,5.65
2023-03-21T15:40:53.093Z,4.53
2023-03-21T15:43:23.103Z,3.33
2023-03-21T15:45:56.772Z,4.43
2023-03-21T15:48:28.188Z,3.15
2023-03-21T15:51:03.083Z,3.88
2023-03-21T15:53:34.488Z,4.15
2023-03-21T15:56:06.102Z,8.63
2023-03-21T15:58:38.698Z,8.20
2023-03-21T16:01:13.336Z,5.27
2023-03-21T16:03:46.575Z,5.83
2023-03-21T16:06:21.792Z,3.40
2023-03-21T16:08:52.115Z,6.03
2023-03-21T16:11:26.025Z,3.47
2023-03-21T16:13:56.898Z,5.53
2023-03-21T16:16:27.565Z,4.20
2023-03-21T16:18:58.100Z,5.73
2023-03-21T16:21:28.926Z,4.40
2023-03-21T16:23:58.178Z,9.50
2023-03-21T16:26:30.617Z,6.50
2023-03-21T16:29:00.698Z,4.32
2023-03-21T16:31:32.317Z,5.90
2023-03-21T16:34:01.669Z,5.17
2023-03-21T16:36:32.465Z,7.60
2023-03-21T16:39:01.583Z,5.20
2023-03-21T16:41:29.805Z,4.53
2023-03-21T16:43:59.362Z,8.03
2023-03-21T16:46:28.550Z,3.10
2023-03-21T16:48:59.315Z,6.20
2023-03-21T16:51:34.524Z,6.50
2023-03-21T16:54:03.329Z,4.40
2023-03-21T16:56:38.339Z,4.97
2023-03-21T16:59:08.936Z,4.90
2023-03-21T17:01:38.393Z,5.10
2023-03-21T17:04:06.916Z,5.13
2023-03-21T17:06:44.551Z,4.57
2023-03-21T17:09:14.667Z,5.93
2023-03-21T17:11:43.255Z,5.33
2023-03-21T17:14:16.789Z,6.00
2023-03-21T17:16:45.753Z,6.90
2023-03-21T17:19:17.125Z,7.07
2023-03-21T17:21:47.104Z,5.03
2023-03-21T17:24:15.629Z,5.57
2023-03-21T17:26:43.982Z,7.40
2023-03-21T17:29:15.569Z,4.20
2023-03-21T17:31:47.318Z,4.93
2023-03-21T17:34:16.062Z,8.10
2023-03-21T17:36:47.356Z,5.60
2023-03-21T17:39:22.633Z,4.50
2023-03-21T17:41:51.972Z,5.83
2023-03-21T17:44:22.151Z,7.37
2023-03-21T17:46:52.205Z,4.57
2023-03-21T17:49:21.192Z,6.53
2023-03-21T17:51:50.441Z,4.77
2023-03-21T17:54:18.842Z,10.13
2023-03-21T17:56:47.397Z,9.00
2023-03-21T17:59:16.341Z,8.80
2023-03-21T18:01:46.630Z,6.83
2023-03-21T18:04:14.929Z,4.90
2023-03-21T18:06:43.135Z,9.17
2023-03-21T18:09:12.397Z,5.43
2023-03-21T18:11:41.791Z,4.27
2023-03-21T18:14:17.627Z,6.27
2023-03-21T18:16:50.645Z,7.80
2023-03-21T18:19:19.012Z,7.87
2023-03-21T18:21:47.184Z,5.40
2023-03-21T18:24:16.177Z,6.50
2023-03-21T18:26:46.171Z,4.47
2023-03-21T18:32:09.004Z,8.90
2023-03-21T18:34:39.422Z,6.83
2023-03-21T18:37:08.875Z,6.73
2023-03-21T18:39:38.207Z,6.20
2023-03-21T18:42:10.807Z,7.57
2023-03-21T18:44:45.662Z,4.30
2023-03-21T18:47:16.041Z,7.47
2023-03-21T18:50:15.193Z,3.20
2023-03-21T18:52:33.082Z,4.03
2023-03-21T18:55:01.270Z,5.63
2023-03-21T18:57:37.013Z,6.43
2023-03-21T19:00:12.954Z,6.20
2023-03-21T19:02:47.664Z,5.23
2023-03-21T19:05:18.582Z,4.17
2023-03-21T19:07:48.035Z,4.73
2023-03-21T19:10:19.956Z,3.60
2023-03-21T19:12:49.674Z,2.70
2023-03-21T19:15:19.816Z,3.57
2023-03-21T19:20:38.968Z,6.57
2023-03-21T19:23:09.340Z,6.07
2023-03-21T19:25:38.377Z,2.83
2023-03-21T19:28:06.921Z,3.70
2023-03-21T19:30:35.205Z,4.83
2023-03-21T19:33:05.343Z,7.40
2023-03-21T19:35:37.292Z,6.20
2023-03-21T19:38:06.113Z,5.53
2023-03-21T19:40:34.549Z,7.43
2023-03-21T19:43:21.534Z,5.00
2023-03-21T19:45:51.545Z,6.37
2023-03-21T19:48:23.463Z,5.97
2023-03-21T19:51:25.833Z,4.60
2023-03-21T19:53:40.654Z,6.67
2023-03-21T19:56:20.746Z,4.43
2023-03-21T19:58:50.551Z,5.20
2023-03-21T20:01:19.102Z,6.80
2023-03-21T20:03:48.661Z,8.23
2023-03-21T20:06:17.251Z,8.97
2023-03-21T20:11:33.868Z,7.73
2023-03-21T20:14:03.268Z,7.77
2023-03-21T20:16:35.860Z,7.07
2023-03-21T20:19:08.907Z,8.10
2023-03-21T20:21:47.689Z,8.23
2023-03-21T20:24:18.572Z,7.23
2023-03-21T20:26:47.217Z,9.87
2023-03-21T20:32:03.815Z,8.00
2023-03-21T20:34:36.808Z,7.63
2023-03-21T20:37:06.270Z,13.37
2023-03-21T20:39:34.651Z,11.17
2023-03-21T20:42:09.276Z,11.43
2023-03-21T20:44:57.745Z,9.20
2023-03-21T20:47:26.451Z,7.90
2023-03-21T20:49:56.760Z,10.73
2023-03-21T20:53:00.851Z,10.50
2023-03-21T20:55:14.419Z,11.33
2023-03-21T20:57:42.886Z,9.40
2023-03-21T21:00:14.927Z,11.90
2023-03-21T21:02:45.364Z,11.03
2023-03-21T21:05:34.464Z,9.87
2023-03-21T21:08:04.169Z,7.87
2023-03-21T21:10:33.788Z,8.17
2023-03-21T21:13:02.797Z,11.43
2023-03-21T21:15:31.311Z,11.63
2023-03-21T21:18:07.834Z,13.03
2023-03-21T21:20:40.191Z,11.53
2023-03-21T21:23:09.544Z,14.43
2023-03-21T21:25:38.959Z,10.73
2023-03-21T21:28:09.395Z,9.83
2023-03-21T21:30:41.267Z,11.20
2023-03-21T21:33:09.890Z,10.90
2023-03-21T21:35:39.605Z,8.97
2023-03-21T21:38:07.984Z,10.80
2023-03-21T21:40:36.494Z,7.10
2023-03-21T21:43:04.950Z,7.70
2023-03-21T21:45:33.556Z,6.80
2023-03-21T21:48:02.090Z,8.97
2023-03-21T21:50:30.385Z,8.27
2023-03-21T21:53:03.754Z,7.27
2023-03-21T21:55:32.464Z,9.77
2023-03-21T21:58:01.361Z,10.43
2023-03-21T22:00:31.743Z,9.60
2023-03-21T22:03:01.462Z,7.07
2023-03-21T22:05:30.182Z,12.43
2023-03-21T22:07:59.752Z,7.77
2023-03-21T22:10:28.436Z,12.50
2023-03-21T22:12:56.690Z,7.33
2023-03-21T22:15:25.176Z,11.20
2023-03-21T22:17:53.674Z,9.50
2023-03-21T22:20:22.588Z,7.37
2023-03-21T22:22:50.876Z,7.20
2023-03-21T22:25:20.786Z,10.33
2023-03-21T22:27:49.013Z,11.03
2023-03-21T22:30:18.590Z,9.67
2023-03-21T22:33:06.139Z,8.80
2023-03-21T22:35:34.733Z,9.20
2023-03-21T22:38:03.002Z,8.07
2023-03-21T22:40:32.693Z,6.30
2023-03-21T22:43:00.990Z,8.50
2023-03-21T22:45:29.457Z,10.87
2023-03-21T22:47:59.865Z,10.87
2023-03-21T22:50:28.838Z,10.53
2023-03-21T22:52:57.066Z,9.70
2023-03-21T22:55:25.281Z,6.70
2023-03-21T22:57:54.849Z,8.70
2023-03-21T23:00:23.455Z,8.80
2023-03-21T23:02:51.770Z,8.13
2023-03-21T23:05:20.419Z,8.20
2023-03-21T23:07:49.273Z,8.83
2023-03-21T23:10:18.112Z,9.13
2023-03-21T23:12:46.372Z,9.60
2023-03-21T23:15:16.010Z,8.27
2023-03-21T23:17:44.838Z,9.07
2023-03-21T23:20:13.248Z,7.07
2023-03-21T23:22:41.936Z,6.17
2023-03-21T23:25:11.991Z,7.60
2023-03-21T23:27:40.279Z,7.03
2023-03-21T23:30:09.892Z,7.97
2023-03-21T23:32:39.503Z,6.77
2023-03-21T23:35:09.631Z,7.47
2023-03-21T23:37:38.149Z,8.80
2023-03-21T23:40:09.179Z,8.87
2023-03-21T23:42:37.410Z,7.97
2023-03-21T23:45:06.988Z,6.40
2023-03-21T23:47:35.262Z,8.53
2023-03-21T23:50:07.783Z,6.90
2023-03-21T23:52:36.867Z,5.80
2023-03-21T23:55:06.415Z,7.60
2023-03-21T23:57:34.948Z,7.93
